Meteógrafos Informações Meteorológicas em tempo real
Aeroporto Internacional de Viracopos
15-12-2019 23:56

Temperatura atual: 24 graus 75 F    Umidade relativa: 78 %
Velocidade do vento: 06 nós 10 Km/h    Direção: 110 graus ESE
Ajuste do altímetro ..: 1016 HPA
Visibilidade: Ótima    Tempo presente: Céu Limpo

Observação
Data Hora BRTTempo°CUmidadePressãoVentoVisib.
15/12 - 23:56   Céu Limpo 24° 78% 1016 Este-sudeste/10 km/h OK
15/12 - 22:56   Céu Limpo 24° 73% 1017 Sudeste/9 km/h OK
15/12 - 21:56   Céu Limpo 25° 69% 1016 Este-sudeste/9 km/h OK
15/12 - 20:56   Céu Limpo 27° 58% 1016 Norte/0 km/h OK
15/12 - 19:56   Poucas nuvens esparsas 28° 51% 1015 Norte/0 km/h OK
15/12 - 18:56   Parcialmente Nublado 29° 48% 1015 Oeste-noroeste/5 km/h 9999
15/12 - 17:55   Parcialmente Nublado 29° 51% 1016 Noroeste/14 km/h OK
15/12 - 16:56   Parcialmente Nublado 30° 45% 1016 Noroeste/14 km/h OK
15/12 - 15:56   Parcialmente Nublado 30° 48% 1016 Norte-noroeste/16 km/h OK
15/12 - 14:56   Poucas nuvens esparsas 30° 51% 1016 Norte-noroeste/16 km/h OK
15/12 - 13:56   Poucas nuvens esparsas 30° 51% 1017 Norte/12 km/h OK
15/12 - 12:56   Poucas nuvens esparsas 30° 51% 1017 Norte/12 km/h OK
15/12 - 11:56   Poucas nuvens esparsas 27° 61% 1019 Norte/12 km/h OK
15/12 - 10:56   Não Disponível 25° 73% 1019 Norte-noroeste/9 km/h OK
15/12 - 09:56   Não Disponível 25° 73% 1019 Norte-noroeste/12 km/h OK
15/12 - 08:56   Céu Limpo 23° 83% 1019 Norte-noroeste/7 km/h OK
15/12 - 07:56   Céu Limpo 22° 83% 1018 Leste/7 km/h OK
15/12 - 06:56   Céu Limpo 21° 88% 1018 Este-sudeste/12 km/h OK
15/12 - 05:56   Céu Limpo 21° 88% 1017 Este-sudeste/14 km/h OK
15/12 - 04:56   Céu Limpo 21° 88% 1017 Este-sudeste/14 km/h OK
15/12 - 03:56   Céu Limpo 21° 88% 1017 Este-sudeste/12 km/h OK
15/12 - 02:56   Céu Limpo 21° 88% 1017 Este-sudeste/12 km/h OK
15/12 - 01:56   Céu Limpo 21° 88% 1017 Este-sudeste/21 km/h OK
15/12 - 00:56   Chovendo fraco 21° 94% 1018 Sudeste/19 km/h 8000

Termo de Uso  |   Links Úteis  |   Imprensa  |  Anuncie  |  Fale Conosco  |  Versão Celular  |   Política de Privacidade

Apolo11.com - Todos os direitos reservados - 2000 - 2019

"Existem velas que iluminam tudo, menos o próprio candelabro" - Hebbel